createdAt,value
2019-04-01T00:04:20.403Z,-2.00
2019-04-01T00:09:24.133Z,-2.20
2019-04-01T00:14:27.921Z,-2.90
2019-04-01T00:19:32.333Z,-2.90
2019-04-01T00:24:36.047Z,-2.90
2019-04-01T00:29:40.013Z,-1.50
2019-04-01T00:34:43.766Z,-2.50
2019-04-01T00:39:47.482Z,-2.50
2019-04-01T00:44:51.206Z,-2.50
2019-04-01T00:49:54.888Z,-2.60
2019-04-01T00:54:58.602Z,-2.70
2019-04-01T01:00:02.301Z,-2.70
2019-04-01T01:05:06.193Z,-2.80
2019-04-01T01:10:10.549Z,-2.90
2019-04-01T01:15:14.487Z,-2.80
2019-04-01T01:20:18.193Z,-2.60
2019-04-01T01:25:21.893Z,-2.50
2019-04-01T01:30:25.573Z,-2.60
2019-04-01T01:35:29.307Z,-2.60
2019-04-01T01:40:33.026Z,-2.60
2019-04-01T01:45:36.995Z,-2.80
2019-04-01T01:50:40.730Z,-3.00
2019-04-01T01:55:44.546Z,-3.00
2019-04-01T02:00:48.283Z,-3.10
2019-04-01T02:05:52.023Z,-3.10
2019-04-01T02:10:55.749Z,-3.10
2019-04-01T02:15:59.792Z,-3.30
2019-04-01T02:21:03.593Z,-3.30
2019-04-01T02:26:07.590Z,-3.50
2019-04-01T02:31:11.374Z,-3.50
2019-04-01T02:36:15.113Z,-3.70
2019-04-01T02:41:19.159Z,-3.90
2019-04-01T02:46:22.951Z,-3.90
2019-04-01T02:51:26.923Z,-3.90
2019-04-01T02:56:30.633Z,-3.90
2019-04-01T03:01:34.371Z,-3.80
2019-04-01T03:06:38.277Z,-3.70
2019-04-01T03:11:42.434Z,-3.60
2019-04-01T03:16:46.341Z,-3.80
2019-04-01T03:21:50.065Z,-3.80
2019-04-01T03:26:54.318Z,-3.90
2019-04-01T03:31:58.085Z,-4.10
2019-04-01T03:37:01.797Z,-4.00
2019-04-01T03:42:05.592Z,-3.90
2019-04-01T03:47:09.346Z,-3.90
2019-04-01T03:52:13.601Z,-3.90
2019-04-01T03:57:17.329Z,-4.00
2019-04-01T04:02:21.165Z,-4.10
2019-04-01T04:07:24.973Z,-4.10
2019-04-01T04:12:28.702Z,-4.20
2019-04-01T04:17:32.490Z,-4.20
2019-04-01T04:22:36.207Z,-4.20
2019-04-01T04:27:40.220Z,-4.20
2019-04-01T04:32:43.972Z,-4.10
2019-04-01T04:37:48.016Z,-4.10
2019-04-01T04:42:51.743Z,-4.20
2019-04-01T04:47:55.724Z,-4.20
2019-04-01T04:52:59.773Z,-4.20
2019-04-01T04:58:03.666Z,-4.20
2019-04-01T05:03:07.558Z,-4.10
2019-04-01T05:08:11.331Z,-4.00
2019-04-01T05:13:15.150Z,-3.90
2019-04-01T05:18:19.029Z,-3.70
2019-04-01T05:23:23.459Z,-3.50
2019-04-01T05:28:29.615Z,-3.40
2019-04-01T05:33:36.278Z,-3.30
2019-04-01T05:38:40.050Z,-3.10
2019-04-01T05:43:44.103Z,-2.80
2019-04-01T05:48:48.074Z,-0.50
2019-04-01T05:53:52.155Z,2.10
2019-04-01T05:58:56.298Z,4.00
2019-04-01T06:04:00.200Z,5.00
2019-04-01T06:09:06.261Z,5.40
2019-04-01T06:14:10.509Z,5.50
2019-04-01T06:19:14.588Z,6.00
2019-04-01T06:24:18.717Z,5.80
2019-04-01T06:29:22.623Z,5.30
2019-04-01T06:34:26.621Z,5.20
2019-04-01T06:39:30.495Z,4.80
2019-04-01T06:44:34.720Z,4.70
2019-04-01T06:49:38.549Z,4.90
2019-04-01T06:54:42.395Z,5.00
2019-04-01T06:59:46.724Z,5.00
2019-04-01T07:04:50.476Z,5.30
2019-04-01T07:09:54.263Z,5.60
2019-04-01T07:14:58.329Z,5.70
2019-04-01T07:20:02.509Z,5.80
2019-04-01T07:25:06.510Z,6.00
2019-04-01T07:30:12.728Z,6.50
2019-04-01T07:35:16.690Z,6.60
2019-04-01T07:40:20.686Z,7.00
2019-04-01T07:45:24.519Z,6.90
2019-04-01T07:50:28.652Z,7.40
2019-04-01T07:55:32.637Z,7.50
2019-04-01T08:00:36.697Z,8.00
2019-04-01T08:05:40.525Z,8.50
2019-04-01T08:10:44.375Z,8.80
2019-04-01T08:15:48.472Z,8.90
2019-04-01T08:20:52.211Z,8.70
2019-04-01T08:25:56.334Z,8.20
2019-04-01T08:31:00.444Z,7.70
2019-04-01T08:36:04.272Z,8.30
2019-04-01T08:41:08.014Z,8.50
2019-04-01T08:46:11.898Z,8.20
2019-04-01T08:51:15.736Z,8.70
2019-04-01T08:56:20.029Z,9.20
2019-04-01T09:01:34.600Z,8.80
2019-04-01T09:06:31.346Z,9.20
2019-04-01T09:11:38.219Z,9.00
2019-04-01T09:16:42.031Z,10.00
2019-04-01T09:21:45.777Z,9.40
2019-04-01T09:26:49.518Z,9.40
2019-04-01T09:31:53.411Z,9.30
2019-04-01T09:36:57.153Z,10.30
2019-04-01T09:42:01.002Z,9.60
2019-04-01T09:47:04.993Z,9.50
2019-04-01T09:52:08.911Z,10.00
2019-04-01T09:57:17.830Z,10.70
2019-04-01T10:02:31.299Z,10.90
2019-04-01T10:07:23.789Z,10.80
2019-04-01T10:12:27.630Z,11.00
2019-04-01T10:17:31.440Z,10.60
2019-04-01T10:22:35.193Z,10.80
2019-04-01T10:27:39.092Z,11.00
2019-04-01T10:32:42.887Z,11.30
2019-04-01T10:37:47.765Z,11.00
2019-04-01T10:42:51.981Z,11.00
2019-04-01T10:47:56.039Z,11.20
2019-04-01T10:52:59.924Z,10.90
2019-04-01T10:58:03.861Z,11.70
2019-04-01T11:03:07.747Z,12.10
2019-04-01T11:08:11.656Z,11.60
2019-04-01T11:13:15.427Z,11.70
2019-04-01T11:18:19.255Z,12.00
2019-04-01T11:23:23.100Z,12.40
2019-04-01T11:28:26.909Z,12.10
2019-04-01T11:33:30.706Z,11.70
2019-04-01T11:38:34.667Z,11.90
2019-04-01T11:43:38.547Z,12.20
2019-04-01T11:48:42.461Z,12.60
2019-04-01T11:53:46.211Z,12.20
2019-04-01T11:58:50.039Z,12.30
2019-04-01T12:03:53.844Z,12.20
2019-04-01T12:08:58.862Z,12.50
2019-04-01T12:14:05.095Z,12.50
2019-04-01T12:19:08.214Z,12.30
2019-04-01T12:24:11.942Z,12.30
2019-04-01T12:29:15.659Z,12.40
2019-04-01T12:34:19.827Z,12.60
2019-04-01T12:39:23.580Z,12.40
2019-04-01T12:44:27.567Z,12.60
2019-04-01T12:49:31.302Z,12.50
2019-04-01T12:54:35.107Z,12.40
2019-04-01T12:59:39.092Z,12.60
2019-04-01T13:04:43.076Z,12.20
2019-04-01T13:09:46.786Z,12.30
2019-04-01T13:14:50.499Z,12.50
2019-04-01T13:19:54.306Z,12.80
2019-04-01T13:24:58.098Z,12.70
2019-04-01T13:30:02.025Z,12.50
2019-04-01T13:35:06.349Z,13.00
2019-04-01T13:40:10.938Z,12.60
2019-04-01T13:45:14.810Z,12.50
2019-04-01T13:50:18.810Z,12.60
2019-04-01T13:55:22.611Z,12.80
2019-04-01T14:00:27.503Z,12.70
2019-04-01T14:05:31.395Z,12.70
2019-04-01T14:10:35.122Z,12.90
2019-04-01T14:15:38.850Z,12.80
2019-04-01T14:20:42.610Z,12.80
2019-04-01T14:25:46.339Z,12.80
2019-04-01T14:30:50.351Z,12.70
2019-04-01T14:35:54.079Z,12.60
2019-04-01T14:40:58.208Z,12.10
2019-04-01T14:46:02.144Z,12.20
2019-04-01T14:51:05.946Z,12.20
2019-04-01T14:56:10.827Z,12.40
2019-04-01T15:01:14.707Z,12.30
2019-04-01T15:06:18.526Z,12.10
2019-04-01T15:11:22.352Z,11.90
2019-04-01T15:16:26.184Z,12.00
2019-04-01T15:21:30.242Z,11.80
2019-04-01T15:26:34.221Z,11.70
2019-04-01T15:31:38.195Z,11.60
2019-04-01T15:36:41.959Z,11.80
2019-04-01T15:41:45.762Z,11.80
2019-04-01T15:46:50.351Z,11.50
2019-04-01T15:51:54.107Z,11.30
2019-04-01T15:56:58.332Z,11.30
2019-04-01T16:02:02.667Z,11.20
2019-04-01T16:07:06.519Z,11.10
2019-04-01T16:12:11.459Z,11.10
2019-04-01T16:17:15.233Z,10.90
2019-04-01T16:22:19.254Z,10.80
2019-04-01T16:27:22.989Z,10.70
2019-04-01T16:32:26.751Z,10.50
2019-04-01T16:37:30.858Z,10.40
2019-04-01T16:42:34.626Z,10.30
2019-04-01T16:47:39.952Z,10.20
2019-04-01T16:52:43.963Z,10.10
2019-04-01T16:57:47.821Z,9.90
2019-04-01T17:02:51.827Z,9.80
2019-04-01T17:07:55.687Z,9.70
2019-04-01T17:13:01.377Z,9.50
2019-04-01T17:18:05.071Z,9.40
2019-04-01T17:23:09.135Z,9.40
2019-04-01T17:28:12.875Z,9.60
2019-04-01T17:33:16.727Z,9.40
2019-04-01T17:38:20.731Z,8.90
2019-04-01T17:43:24.475Z,8.50
2019-04-01T17:48:28.312Z,8.10
2019-04-01T17:53:32.195Z,7.80
2019-04-01T17:58:36.021Z,7.60
2019-04-01T18:03:39.949Z,7.30
2019-04-01T18:08:43.680Z,7.10
2019-04-01T18:13:47.732Z,6.90
2019-04-01T18:18:51.531Z,6.80
2019-04-01T18:24:16.055Z,6.60
2019-04-01T18:29:19.803Z,6.40
2019-04-01T18:34:23.878Z,6.20
2019-04-01T18:39:29.940Z,6.00
2019-04-01T18:44:37.384Z,5.80
2019-04-01T18:49:41.448Z,5.60
2019-04-01T18:54:45.356Z,5.60
2019-04-01T18:59:49.967Z,5.50
2019-04-01T19:04:55.653Z,5.40
2019-04-01T19:10:05.976Z,5.30
2019-04-01T19:15:06.761Z,5.30
2019-04-01T19:20:11.441Z,5.40
2019-04-01T19:25:16.032Z,5.50
2019-04-01T19:30:20.652Z,5.40
2019-04-01T19:35:24.552Z,5.40
2019-04-01T19:40:28.457Z,5.40
2019-04-01T19:45:32.200Z,5.40
2019-04-01T19:50:35.991Z,5.50
2019-04-01T19:55:43.709Z,5.40
2019-04-01T20:00:46.307Z,5.40
2019-04-01T20:05:50.122Z,5.30
2019-04-01T20:10:54.522Z,5.30
2019-04-01T20:15:58.734Z,5.30
2019-04-01T20:21:03.249Z,5.20
2019-04-01T20:26:07.397Z,5.20
2019-04-01T20:31:11.522Z,5.10
2019-04-01T20:36:27.599Z,5.00
2019-04-01T20:41:21.494Z,5.00
2019-04-01T20:46:26.294Z,4.90
2019-04-01T20:51:30.292Z,4.80
2019-04-01T20:56:34.340Z,4.70
2019-04-01T21:01:38.069Z,4.70
2019-04-01T21:06:41.863Z,4.60
2019-04-01T21:11:45.652Z,4.60
2019-04-01T21:16:49.640Z,4.50
2019-04-01T21:21:53.361Z,4.60
2019-04-01T21:26:57.123Z,4.60
2019-04-01T21:32:01.217Z,4.50
2019-04-01T21:37:06.067Z,4.70
2019-04-01T21:42:10.130Z,4.70
2019-04-01T21:47:14.329Z,4.70
2019-04-01T21:52:18.080Z,4.60
2019-04-01T21:57:22.745Z,4.70
2019-04-01T22:02:35.707Z,4.70
2019-04-01T22:07:32.337Z,4.80
2019-04-01T22:12:36.087Z,4.80
2019-04-01T22:17:39.812Z,4.80
2019-04-01T22:22:43.562Z,4.70
2019-04-01T22:27:47.414Z,4.50
2019-04-01T22:32:51.395Z,4.40
2019-04-01T22:37:55.143Z,4.30
2019-04-01T22:43:09.436Z,4.40
2019-04-01T22:48:04.619Z,4.20
2019-04-01T22:53:08.627Z,4.20
2019-04-01T22:58:12.379Z,4.30
2019-04-01T23:03:18.264Z,4.30
2019-04-01T23:08:21.881Z,4.20
2019-04-01T23:13:25.718Z,4.20
2019-04-01T23:18:29.496Z,4.20
2019-04-01T23:23:33.214Z,4.20
2019-04-01T23:28:36.964Z,4.20
2019-04-01T23:33:40.778Z,4.10
2019-04-01T23:38:44.547Z,4.00
2019-04-01T23:43:48.547Z,4.10
2019-04-01T23:48:52.314Z,4.10
2019-04-01T23:53:56.095Z,4.00
2019-04-01T23:59:00.193Z,3.90
